createdAt,value
2022-11-08T00:10:17.579Z,74.88
2022-11-08T00:20:20.019Z,75.73
2022-11-08T00:30:23.875Z,76.36
2022-11-08T00:40:26.329Z,76.98
2022-11-08T00:50:30.129Z,77.79
2022-11-08T01:00:32.585Z,78.44
2022-11-08T01:10:36.510Z,77.46
2022-11-08T01:20:39.192Z,78.05
2022-11-08T01:30:44.056Z,78.04
2022-11-08T01:40:47.624Z,77.92
2022-11-08T01:50:51.951Z,78.16
2022-11-08T02:00:54.528Z,78.24
2022-11-08T02:10:58.862Z,78.54
2022-11-08T02:21:06.207Z,78.34
2022-11-08T02:31:10.777Z,78.45
2022-11-08T02:41:13.505Z,78.46
2022-11-08T02:51:17.349Z,78.27
2022-11-08T03:01:19.854Z,78.73
2022-11-08T03:11:23.718Z,77.74
2022-11-08T03:21:26.183Z,78.43
2022-11-08T03:31:30.005Z,78.36
2022-11-08T03:41:32.466Z,78.69
2022-11-08T03:51:36.345Z,78.43
2022-11-08T04:01:38.868Z,78.00
2022-11-08T04:11:59.286Z,78.60
2022-11-08T04:22:01.744Z,79.54
2022-11-08T04:32:05.781Z,79.68
2022-11-08T04:42:08.269Z,81.17
2022-11-08T04:52:12.133Z,79.65
2022-11-08T05:02:14.790Z,79.50
2022-11-08T05:12:18.755Z,79.44
2022-11-08T05:22:38.612Z,79.61
2022-11-08T05:32:42.437Z,79.24
2022-11-08T05:42:44.879Z,78.60
2022-11-08T05:52:49.048Z,79.20
2022-11-08T06:02:51.709Z,79.32
2022-11-08T06:12:59.120Z,79.51
2022-11-08T06:23:01.604Z,80.17
2022-11-08T06:33:05.406Z,80.63
2022-11-08T06:43:07.907Z,80.91
2022-11-08T06:53:13.616Z,81.50
2022-11-08T07:03:18.259Z,80.20
2022-11-08T07:13:22.479Z,79.73
2022-11-08T07:23:25.328Z,79.59
2022-11-08T07:33:29.322Z,78.39
2022-11-08T07:43:31.910Z,80.31
2022-11-08T07:53:35.765Z,80.82
2022-11-08T08:03:38.237Z,77.29
2022-11-08T08:13:42.072Z,78.38
2022-11-08T08:23:44.576Z,77.16
2022-11-08T08:33:48.403Z,74.29
2022-11-08T08:43:50.875Z,74.35
2022-11-08T08:53:54.674Z,73.94
2022-11-08T09:03:58.279Z,73.36
2022-11-08T09:14:02.118Z,72.74
2022-11-08T09:24:04.785Z,73.35
2022-11-08T09:34:08.655Z,69.58
2022-11-08T09:44:17.917Z,67.58
2022-11-08T09:54:27.391Z,68.19
2022-11-08T10:04:31.854Z,65.89
2022-11-08T10:14:52.569Z,67.64
2022-11-08T10:25:00.691Z,68.22
2022-11-08T10:35:09.927Z,67.00
2022-11-08T10:45:12.491Z,66.05
2022-11-08T10:55:26.762Z,65.82
2022-11-08T11:05:34.150Z,63.91
2022-11-08T11:15:39.534Z,60.75
2022-11-08T11:25:51.024Z,61.60
2022-11-08T11:35:57.807Z,58.99
2022-11-08T11:46:05.104Z,57.39
2022-11-08T11:56:22.419Z,56.13
2022-11-08T12:06:37.134Z,55.42
2022-11-08T12:16:44.443Z,51.60
2022-11-08T12:26:52.328Z,47.30
2022-11-08T12:37:01.773Z,47.08
2022-11-08T12:47:12.212Z,45.10
2022-11-08T12:57:16.344Z,46.09
2022-11-08T13:07:24.033Z,44.17
2022-11-08T13:17:27.101Z,42.74
2022-11-08T13:27:34.896Z,44.61
2022-11-08T13:37:42.925Z,46.13
2022-11-08T13:47:55.030Z,47.87
2022-11-08T13:57:59.266Z,51.35
2022-11-08T14:08:22.744Z,49.71
2022-11-08T14:18:29.786Z,48.93
2022-11-08T14:28:33.849Z,49.31
2022-11-08T14:38:38.527Z,50.09
2022-11-08T14:48:49.637Z,50.70
2022-11-08T14:58:54.458Z,51.47
2022-11-08T15:08:56.953Z,53.90
2022-11-08T15:19:18.056Z,54.37
2022-11-08T15:29:21.371Z,56.55
2022-11-08T15:39:29.301Z,57.21
2022-11-08T15:49:31.743Z,59.61
2022-11-08T15:59:37.481Z,59.98
2022-11-08T16:09:39.882Z,57.84
2022-11-08T16:19:43.660Z,58.49
2022-11-08T16:29:46.165Z,61.34
2022-11-08T16:39:49.918Z,63.32
2022-11-08T16:49:52.350Z,62.96
2022-11-08T16:59:56.134Z,64.80
2022-11-08T17:09:58.627Z,63.80
2022-11-08T17:20:02.461Z,64.48
2022-11-08T17:30:05.295Z,66.19
2022-11-08T17:40:09.881Z,69.28
2022-11-08T17:50:12.338Z,70.50
2022-11-08T18:00:17.056Z,69.82
2022-11-08T18:10:19.460Z,68.98
2022-11-08T18:20:23.223Z,68.63
2022-11-08T18:30:27.408Z,65.40
2022-11-08T18:40:31.477Z,65.17
2022-11-08T18:50:33.917Z,64.53
2022-11-08T19:00:37.687Z,64.39
2022-11-08T19:10:40.091Z,63.78
2022-11-08T19:20:43.844Z,63.49
2022-11-08T19:30:49.965Z,64.13
2022-11-08T19:40:53.869Z,62.45
2022-11-08T19:50:56.784Z,64.68
2022-11-08T20:01:00.728Z,64.86
2022-11-08T20:11:10.993Z,66.33
2022-11-08T20:21:20.141Z,67.51
2022-11-08T20:31:23.122Z,67.92
2022-11-08T20:41:27.040Z,69.47
2022-11-08T20:51:30.416Z,69.17
2022-11-08T21:01:35.751Z,69.33
2022-11-08T21:11:38.217Z,70.22
2022-11-08T21:21:46.000Z,69.13
2022-11-08T21:31:48.435Z,69.94
2022-11-08T21:41:52.589Z,68.44
2022-11-08T21:51:55.012Z,67.33
2022-11-08T22:01:58.861Z,69.03
2022-11-08T22:12:01.264Z,68.04
2022-11-08T22:22:05.309Z,68.46
2022-11-08T22:32:07.729Z,69.06
2022-11-08T22:42:11.531Z,67.59
2022-11-08T22:52:13.930Z,68.41
2022-11-08T23:02:17.666Z,70.45
2022-11-08T23:12:37.677Z,71.11
2022-11-08T23:22:59.107Z,70.89
2022-11-08T23:33:01.855Z,71.22
2022-11-08T23:43:28.699Z,70.78
2022-11-08T23:53:31.111Z,71.83
